Time;durP1;ratioP1;P1;durP2;ratioP2;P2;SDS_P1;SDS_P2;PMS_P1;PMS_P2;Temp;Humidity;BMP_temperature;BMP_pressure;BME280_temperature;BME280_humidity;BME280_pressure;Samples;Min_cycle;Max_cycle;Signal;HPM_P1;HPM_P2
2022/12/08 00:00:01;;;;;;;14.88;13.00;;;;;;;5.17;66.23;100445.09;672588;29;816;-83
2022/12/08 00:00:32;;;;;;;15.82;12.68;;;;;;;5.26;66.25;100456.69;672453;29;1139;-83
2022/12/08 00:00:52;;;;;;;15.70;12.48;;;;;;;5.25;65.88;100449.75;675019;29;1205;-82
2022/12/08 00:01:16;;;;;;;18.37;12.87;;;;;;;5.34;65.79;100457.94;672390;29;1264;-83
2022/12/08 00:01:36;;;;;;;18.25;13.23;;;;;;;5.25;66.16;100440.28;674939;29;1136;-82
2022/12/08 00:02:03;;;;;;;19.43;13.03;;;;;;;5.36;65.81;100463.16;676954;29;1128;-83
2022/12/08 00:02:24;;;;;;;18.35;12.80;;;;;;;5.33;66.20;100459.63;680297;29;1147;-83
2022/12/08 00:02:44;;;;;;;17.50;12.73;;;;;;;5.34;65.70;100456.22;680270;29;1022;-83
2022/12/08 00:03:05;;;;;;;16.75;13.20;;;;;;;5.33;65.92;100457.03;680338;29;1025;-83
2022/12/08 00:03:25;;;;;;;15.93;13.90;;;;;;;5.26;66.03;100441.16;675060;29;1116;-83
2022/12/08 00:03:47;;;;;;;16.20;14.18;;;;;;;5.31;66.25;100458.69;675130;29;1323;-83
2022/12/08 00:04:09;;;;;;;15.85;14.15;;;;;;;5.31;66.05;100448.34;677719;29;1196;-83
2022/12/08 00:09:20;;;;;;;15.43;13.43;;;;;;;5.37;65.77;100457.16;677639;29;1157;-83
2022/12/08 00:09:29;;;;;;;18.05;14.27;;;;;;;5.42;65.70;100447.91;677011;29;1164;-82
2022/12/08 00:09:50;;;;;;;17.02;14.15;;;;;;;5.44;65.79;100449.75;677600;29;1114;-83
2022/12/08 00:10:10;;;;;;;17.00;13.90;;;;;;;5.44;65.46;100456.63;677632;29;1253;-83
2022/12/08 00:10:31;;;;;;;17.00;14.00;;;;;;;5.41;65.51;100441.84;678638;29;1069;-82
2022/12/08 00:10:52;;;;;;;18.00;14.10;;;;;;;5.41;65.55;100452.19;677696;29;939;-82
2022/12/08 00:11:13;;;;;;;17.30;14.70;;;;;;;5.41;65.52;100436.66;674999;29;1082;-83
2022/12/08 00:11:34;;;;;;;16.75;14.27;;;;;;;5.44;65.84;100441.97;669251;29;1911;-82
2022/12/08 00:12:06;;;;;;;16.80;13.93;;;;;;;5.44;65.59;100447.16;672541;29;836;-82
2022/12/08 00:12:27;;;;;;;18.40;14.07;;;;;;;5.32;65.82;100428.50;674989;29;1118;-83
2022/12/08 00:12:48;;;;;;;18.70;14.80;;;;;;;5.32;65.35;100425.91;677527;29;1271;-83
2022/12/08 00:13:08;;;;;;;17.63;14.93;;;;;;;5.43;65.47;100439.31;677572;29;1239;-82
2022/12/08 00:13:29;;;;;;;17.80;15.40;;;;;;;5.38;65.33;100436.53;672299;29;1121;-83
2022/12/08 00:13:49;;;;;;;19.48;16.17;;;;;;;5.35;65.87;100433.81;674973;29;1271;-82
2022/12/08 00:14:10;;;;;;;21.03;17.03;;;;;;;5.33;65.77;100432.84;675082;29;986;-82
2022/12/08 00:14:36;;;;;;;21.70;17.60;;;;;;;5.31;65.68;100431.91;675016;29;1115;-83
2022/12/08 00:14:57;;;;;;;21.13;17.80;;;;;;;5.32;65.81;100433.66;672410;29;1315;-83
2022/12/08 00:15:17;;;;;;;23.93;19.13;;;;;;;5.31;66.11;100434.50;677540;29;1057;-82
2022/12/08 00:15:38;;;;;;;24.33;20.25;;;;;;;5.33;65.58;100432.84;680209;29;1051;-83
2022/12/08 00:16:01;;;;;;;25.60;21.17;;;;;;;5.36;65.85;100433.00;680207;29;1074;-82
2022/12/08 00:16:22;;;;;;;26.50;21.52;;;;;;;5.34;65.72;100437.22;680204;29;1340;-83
2022/12/08 00:16:42;;;;;;;28.35;22.17;;;;;;;5.33;65.43;100432.84;679971;29;1109;-83
2022/12/08 00:17:05;;;;;;;30.13;23.70;;;;;;;5.33;65.64;100430.25;677503;29;1283;-82
2022/12/08 00:17:25;;;;;;;32.80;25.77;;;;;;;5.36;65.49;100433.00;677586;29;1176;-83
2022/12/08 00:17:46;;;;;;;32.60;26.10;;;;;;;5.32;65.70;100436.25;672392;29;1278;-82
2022/12/08 00:18:06;;;;;;;33.00;25.95;;;;;;;5.36;65.44;100435.59;672344;29;1042;-82
2022/12/08 00:18:27;;;;;;;32.53;26.30;;;;;;;5.36;65.47;100438.19;669918;29;1193;-82
2022/12/08 00:18:48;;;;;;;33.40;26.48;;;;;;;5.38;65.21;100446.88;670216;29;956;-83
2022/12/08 00:19:08;;;;;;;34.63;26.13;;;;;;;5.30;65.35;100435.31;674349;29;1375;-82
2022/12/08 00:19:30;;;;;;;34.40;25.10;;;;;;;5.36;65.55;100438.19;677169;29;1294;-82
2022/12/08 00:19:50;;;;;;;37.30;26.48;;;;;;;5.26;65.64;100425.63;680154;29;1346;-83
2022/12/08 00:20:11;;;;;;;39.00;27.90;;;;;;;5.27;65.55;100432.59;677512;29;1161;-82
2022/12/08 00:20:32;;;;;;;37.22;28.35;;;;;;;5.30;65.34;100437.91;675020;29;1087;-82
2022/12/08 00:20:58;;;;;;;35.90;28.40;;;;;;;5.28;65.40;100439.53;672352;29;1167;-83
2022/12/08 00:21:19;;;;;;;35.33;28.38;;;;;;;5.27;65.48;100427.44;672400;29;1103;-82
2022/12/08 00:21:40;;;;;;;36.17;28.05;;;;;;;5.24;65.50;100429.88;672342;29;1023;-82
2022/12/08 00:22:01;;;;;;;37.28;27.63;;;;;;;5.22;65.71;100429.81;672491;29;1343;-82
2022/12/08 00:22:22;;;;;;;37.20;27.73;;;;;;;5.18;65.94;100422.72;675053;29;903;-82
2022/12/08 00:22:43;;;;;;;39.10;28.98;;;;;;;5.29;65.71;100436.13;672416;29;1087;-83
2022/12/08 00:23:03;;;;;;;41.27;31.20;;;;;;;5.28;65.56;100439.53;674957;29;1156;-82
2022/12/08 00:23:24;;;;;;;42.05;32.28;;;;;;;5.24;65.71;100432.44;675094;29;1184;-82
2022/12/08 00:23:45;;;;;;;43.55;33.40;;;;;;;5.31;65.89;100440.56;672286;29;1074;-83
2022/12/08 00:24:06;;;;;;;43.92;33.55;;;;;;;5.28;65.30;100429.19;675036;29;1196;-83
2022/12/08 00:24:33;;;;;;;44.80;34.40;;;;;;;5.31;65.78;100434.50;675194;29;1033;-82
2022/12/08 00:24:54;;;;;;;44.50;33.90;;;;;;;5.30;65.67;100435.31;677573;29;1239;-83
2022/12/08 00:25:14;;;;;;;46.65;34.45;;;;;;;5.28;65.80;100434.38;677576;29;993;-82
2022/12/08 00:25:36;;;;;;;47.80;34.33;;;;;;;5.24;66.09;100415.25;680061;29;1187;-82
2022/12/08 00:26:01;;;;;;;47.25;34.20;;;;;;;5.25;65.61;100423.88;680353;29;1002;-83
2022/12/08 00:26:21;;;;;;;45.20;33.70;;;;;;;5.25;65.83;100417.00;680206;29;1142;-82
2022/12/08 00:26:42;;;;;;;44.90;33.78;;;;;;;5.29;65.71;100431.81;679834;29;1446;-82
2022/12/08 00:27:03;;;;;;;45.72;33.80;;;;;;;5.29;65.92;100428.38;677546;29;1182;-82
2022/12/08 00:27:23;;;;;;;44.93;33.27;;;;;;;5.28;65.35;100432.66;675051;29;810;-83
2022/12/08 00:27:44;;;;;;;43.40;32.43;;;;;;;5.26;65.55;100421.34;677503;29;1291;-83
2022/12/08 00:28:05;;;;;;;42.60;32.47;;;;;;;5.25;65.84;100429.94;677495;29;1011;-83
2022/12/08 00:28:25;;;;;;;42.97;32.90;;;;;;;5.28;66.21;100426.59;680269;29;1108;-83
2022/12/08 00:28:49;;;;;;;44.10;32.77;;;;;;;5.33;65.72;100432.84;682813;29;1261;-83
2022/12/08 00:29:10;;;;;;;41.75;31.17;;;;;;;5.25;65.94;100417.00;680317;29;1010;-82
2022/12/08 00:29:31;;;;;;;40.20;30.55;;;;;;;5.29;65.76;100426.66;674934;29;1099;-82
2022/12/08 00:29:52;;;;;;;40.15;30.85;;;;;;;5.25;65.55;100416.09;669941;29;920;-83
2022/12/08 00:30:12;;;;;;;40.22;31.33;;;;;;;5.29;65.97;100426.66;677575;29;1118;-82
2022/12/08 00:30:33;;;;;;;41.33;31.25;;;;;;;5.26;66.07;100423.94;677489;29;1053;-82
2022/12/08 00:30:53;;;;;;;42.47;31.40;;;;;;;5.26;65.94;100428.22;677596;29;1340;-82
2022/12/08 00:31:20;;;;;;;44.22;32.30;;;;;;;5.30;66.02;100427.56;682865;29;1106;-82
2022/12/08 00:31:41;;;;;;;42.05;32.70;;;;;;;5.34;65.82;100429.47;680068;29;1907;-82
2022/12/08 00:32:02;;;;;;;40.70;31.90;;;;;;;5.30;65.82;100425.88;680270;29;1077;-82
2022/12/08 00:32:22;;;;;;;38.45;30.35;;;;;;;5.34;65.91;100435.50;680307;29;847;-82
2022/12/08 00:32:43;;;;;;;38.63;29.13;;;;;;;5.31;66.06;100416.38;681271;29;1085;-82
2022/12/08 00:33:04;;;;;;;38.23;28.80;;;;;;;5.33;65.74;100422.50;679314;29;948;-83
2022/12/08 00:33:26;;;;;;;37.70;28.58;;;;;;;5.27;65.79;100419.66;678532;29;1054;-82
2022/12/08 00:33:47;;;;;;;36.33;28.42;;;;;;;5.25;65.91;100427.34;678025;29;1375;-82
2022/12/08 00:34:08;;;;;;;35.13;27.60;;;;;;;5.18;66.09;100433.97;677996;29;1283;-82
2022/12/08 00:34:30;;;;;;;35.35;26.70;;;;;;;5.10;66.23;100414.63;680623;29;1215;-83
2022/12/08 00:34:50;;;;;;;36.35;27.10;;;;;;;5.15;65.85;100418.28;680734;29;1244;-82
2022/12/08 00:35:11;;;;;;;35.60;27.60;;;;;;;5.04;66.44;100416.94;680772;29;977;-82
2022/12/08 00:35:32;;;;;;;34.22;27.55;;;;;;;4.90;66.36;100417.19;677605;29;1063;-83
2022/12/08 00:35:52;;;;;;;32.93;26.90;;;;;;;4.89;66.56;100420.59;680303;29;1126;-83
2022/12/08 00:36:14;;;;;;;33.05;27.08;;;;;;;4.84;67.20;100416.03;681480;29;973;-83
2022/12/08 00:36:35;;;;;;;35.35;27.52;;;;;;;4.75;67.00;100409.63;682706;29;1011;-83
2022/12/08 00:36:56;;;;;;;35.53;27.85;;;;;;;4.77;67.23;100414.84;680696;29;773;-83
2022/12/08 00:37:16;;;;;;;36.28;27.98;;;;;;;4.76;67.41;100418.25;678567;29;1009;-82
2022/12/08 00:37:44;;;;;;;33.35;27.42;;;;;;;4.74;67.23;100417.31;678420;29;1233;-83
2022/12/08 00:38:05;;;;;;;33.78;26.30;;;;;;;4.74;67.40;100417.31;680734;29;1126;-82
2022/12/08 00:38:25;;;;;;;34.33;26.30;;;;;;;4.67;67.50;100405.81;678095;29;1221;-82
2022/12/08 00:38:47;;;;;;;36.20;26.88;;;;;;;4.70;67.37;100415.38;678107;29;1019;-83
2022/12/08 00:39:09;;;;;;;34.67;27.00;;;;;;;4.70;67.43;100417.97;678149;29;1089;-83
2022/12/08 00:39:30;;;;;;;32.67;26.30;;;;;;;4.70;67.56;100407.63;679157;29;1080;-82
2022/12/08 00:39:50;;;;;;;30.73;25.52;;;;;;;4.70;67.59;100417.97;678814;29;865;-82
2022/12/08 00:40:11;;;;;;;30.70;25.37;;;;;;;4.63;67.60;100404.78;680800;29;975;-83
2022/12/08 00:40:32;;;;;;;33.63;25.23;;;;;;;4.71;67.49;100417.19;680696;29;1061;-82
2022/12/08 00:40:52;;;;;;;34.55;24.83;;;;;;;4.63;67.67;100409.97;680764;29;1083;-83
2022/12/08 00:41:15;;;;;;;36.00;25.00;;;;;;;4.67;67.75;100418.75;680680;29;1182;-83
2022/12/08 00:42:16;;;;;;;31.08;23.58;;;;;;;4.63;67.78;100417.72;680693;29;1010;-82
2022/12/08 00:42:36;;;;;;;30.77;23.00;;;;;;;4.59;68.17;100408.03;680718;29;1184;-83
2022/12/08 00:42:57;;;;;;;28.58;22.23;;;;;;;4.67;68.15;100420.44;678499;29;1087;-82
2022/12/08 00:43:17;;;;;;;25.93;21.20;;;;;;;4.62;68.01;100415.94;680770;29;970;-82
2022/12/08 00:43:38;;;;;;;25.02;20.58;;;;;;;4.64;67.90;100413.41;680597;29;1036;-83
2022/12/08 00:43:59;;;;;;;23.98;20.23;;;;;;;4.60;67.94;100406.34;675849;29;1077;-83
2022/12/08 00:44:20;;;;;;;24.65;20.58;;;;;;;4.60;68.15;100402.03;675433;29;1082;-82
2022/12/08 00:44:43;;;;;;;25.80;21.33;;;;;;;4.68;68.30;100424.78;678063;29;1082;-82
2022/12/08 00:45:04;;;;;;;26.23;20.90;;;;;;;4.63;68.28;100402.19;677953;29;1355;-83
2022/12/08 00:45:25;;;;;;;24.10;19.77;;;;;;;4.67;68.24;100408.41;678013;29;1192;-83
2022/12/08 00:45:46;;;;;;;24.43;19.60;;;;;;;4.72;68.35;100409.47;678021;29;1287;-82
2022/12/08 00:46:06;;;;;;;23.85;19.60;;;;;;;4.72;68.03;100412.06;678151;29;1038;-82
2022/12/08 00:46:27;;;;;;;23.70;19.55;;;;;;;4.68;68.14;100398.94;679977;29;1219;-82
2022/12/08 00:46:48;;;;;;;23.35;19.25;;;;;;;4.80;68.11;100415.00;680495;29;1178;-83
2022/12/08 00:47:10;;;;;;;24.10;19.52;;;;;;;4.72;68.12;100398.28;680663;29;1302;-82
2022/12/08 00:47:30;;;;;;;24.40;19.27;;;;;;;4.74;68.25;100399.22;678533;29;1230;-82
2022/12/08 00:47:54;;;;;;;23.10;18.63;;;;;;;4.73;67.88;100397.44;680681;29;1164;-82
2022/12/08 00:48:15;;;;;;;22.60;18.30;;;;;;;4.78;67.80;100407.19;678870;29;1094;-83
2022/12/08 00:48:36;;;;;;;21.90;18.20;;;;;;;4.78;67.96;100411.44;680514;29;1286;-83
2022/12/08 00:48:56;;;;;;;21.42;18.20;;;;;;;4.76;67.92;100402.75;672922;29;797;-83
2022/12/08 00:49:17;;;;;;;21.83;18.53;;;;;;;4.73;68.10;100395.72;680648;29;1048;-82
2022/12/08 00:49:40;;;;;;;23.40;18.90;;;;;;;4.77;67.74;100399.34;677872;29;1159;-82
2022/12/08 00:50:01;;;;;;;25.17;18.90;;;;;;;4.73;68.17;100397.44;678278;29;822;-82
2022/12/08 00:50:22;;;;;;;24.15;18.33;;;;;;;4.84;67.73;100414.31;678261;29;1162;-83
2022/12/08 00:50:42;;;;;;;23.63;18.23;;;;;;;4.82;67.75;100405.63;675355;29;1044;-83
2022/12/08 00:51:03;;;;;;;21.60;18.17;;;;;;;4.82;67.67;100402.13;673017;29;1082;-83
2022/12/08 00:51:24;;;;;;;20.98;18.40;;;;;;;4.82;67.93;100397.84;675629;29;753;-83
2022/12/08 00:51:44;;;;;;;20.10;17.80;;;;;;;4.85;68.10;100410.03;675351;29;1994;-83
2022/12/08 00:52:05;;;;;;;18.98;16.98;;;;;;;4.83;67.82;100409.97;678323;29;1204;-83
2022/12/08 00:52:26;;;;;;;19.15;16.58;;;;;;;4.71;67.86;100388.75;678085;29;1331;-83
2022/12/08 00:52:46;;;;;;;20.20;17.58;;;;;;;4.75;68.24;100401.88;675462;29;1121;-82
2022/12/08 00:53:07;;;;;;;21.52;18.35;;;;;;;4.81;68.00;100411.59;672837;29;1317;-82
2022/12/08 00:53:30;;;;;;;21.73;19.27;;;;;;;4.80;67.82;100399.50;678247;29;1137;-83
2022/12/08 00:53:51;;;;;;;22.67;18.85;;;;;;;4.78;67.87;100391.66;680609;29;1423;-83
2022/12/08 00:54:11;;;;;;;23.20;18.17;;;;;;;4.82;67.95;100397.84;675414;29;1317;-83
2022/12/08 00:54:32;;;;;;;21.63;16.88;;;;;;;4.89;67.81;100409.34;678031;29;1047;-83
2022/12/08 00:54:52;;;;;;;19.90;16.37;;;;;;;4.81;67.95;100396.09;678149;29;796;-83
2022/12/08 00:55:13;;;;;;;18.70;16.17;;;;;;;4.86;68.18;100394.63;680783;29;1022;-83
2022/12/08 00:55:34;;;;;;;19.02;16.45;;;;;;;4.83;67.87;100402.22;680666;29;1268;-82
2022/12/08 00:55:54;;;;;;;20.52;16.60;;;;;;;4.85;67.98;100405.75;680845;29;804;-83
2022/12/08 00:56:15;;;;;;;20.27;16.80;;;;;;;4.87;67.95;100406.72;678059;29;1041;-83
2022/12/08 00:56:36;;;;;;;20.45;17.02;;;;;;;4.84;67.98;100401.38;677810;29;970;-83
2022/12/08 00:56:56;;;;;;;20.20;17.20;;;;;;;4.91;67.97;100412.91;678089;29;842;-82
2022/12/08 00:57:17;;;;;;;19.40;16.55;;;;;;;4.80;68.02;100394.31;675554;29;1199;-82
2022/12/08 00:58:09;;;;;;;20.37;16.10;;;;;;;4.91;68.10;100411.19;673034;29;802;-83
2022/12/08 00:58:29;;;;;;;22.70;16.33;;;;;;;4.90;67.79;100405.94;670191;29;1261;-83
2022/12/08 00:58:50;;;;;;;21.45;16.95;;;;;;;4.89;67.93;100402.50;675465;29;1135;-82
2022/12/08 00:59:13;;;;;;;22.52;17.20;;;;;;;4.83;67.72;100389.28;675391;29;1127;-82
2022/12/08 00:59:34;;;;;;;20.85;16.95;;;;;;;4.82;67.68;100381.44;675366;29;1123;-83
2022/12/08 00:59:54;;;;;;;20.77;16.60;;;;;;;4.88;68.22;100412.75;673073;29;853;-83
2022/12/08 01:00:15;;;;;;;20.33;16.67;;;;;;;4.81;67.86;100390.03;678029;29;1161;-82
2022/12/08 01:00:36;;;;;;;21.67;17.27;;;;;;;4.85;67.90;100391.94;677908;29;1279;-83
2022/12/08 01:00:56;;;;;;;21.30;17.45;;;;;;;4.81;68.06;100390.94;678128;29;1075;-82
2022/12/08 01:01:17;;;;;;;21.83;17.33;;;;;;;4.85;67.93;100386.78;675493;29;1154;-82
2022/12/08 01:01:38;;;;;;;20.57;17.00;;;;;;;4.86;67.83;100392.03;672741;29;1114;-83
2022/12/08 01:01:59;;;;;;;20.00;16.77;;;;;;;4.82;67.85;100397.84;673007;29;1084;-83
2022/12/08 01:02:19;;;;;;;19.35;17.08;;;;;;;4.89;67.93;100399.00;675420;29;1368;-82
2022/12/08 01:02:41;;;;;;;19.60;17.08;;;;;;;4.89;67.84;100404.19;675494;29;1073;-82
2022/12/08 01:03:01;;;;;;;18.98;16.98;;;;;;;4.87;67.49;100395.47;675506;29;800;-82
2022/12/08 01:03:22;;;;;;;18.52;16.38;;;;;;;4.84;67.82;100391.06;678661;29;764;-82
2022/12/08 01:03:43;;;;;;;18.17;16.27;;;;;;;4.86;68.15;100404.97;678625;29;1097;-82
2022/12/08 01:04:05;;;;;;;18.88;16.73;;;;;;;4.81;68.07;100384.84;678923;29;1229;-83
2022/12/08 01:04:26;;;;;;;19.88;16.98;;;;;;;4.82;68.15;100386.63;681609;29;1404;-83
2022/12/08 01:04:46;;;;;;;21.75;17.00;;;;;;;4.87;67.97;100390.31;679322;29;1073;-82
2022/12/08 01:05:07;;;;;;;20.40;16.55;;;;;;;4.93;67.68;100401.81;676574;29;1027;-83
2022/12/08 01:05:28;;;;;;;19.83;16.67;;;;;;;4.96;67.85;100405.38;676369;29;1382;-82
2022/12/08 01:05:48;;;;;;;19.13;16.45;;;;;;;4.93;67.74;100398.34;681562;29;1069;-82
2022/12/08 01:06:10;;;;;;;20.45;16.50;;;;;;;4.95;67.97;100398.44;681761;29;986;-82
2022/12/08 01:06:30;;;;;;;20.40;16.80;;;;;;;4.90;67.58;100393.03;680829;29;998;-83
2022/12/08 01:06:51;;;;;;;19.77;17.30;;;;;;;4.98;67.69;100403.72;677814;29;1073;-83
2022/12/08 01:07:12;;;;;;;19.80;17.70;;;;;;;4.99;67.68;100403.81;675259;29;1253;-83
2022/12/08 01:07:32;;;;;;;19.90;17.17;;;;;;;4.91;67.79;100393.09;675353;29;1291;-83
2022/12/08 01:07:53;;;;;;;19.87;16.97;;;;;;;4.93;67.64;100391.47;672904;29;1290;-83
2022/12/08 01:08:14;;;;;;;19.10;16.40;;;;;;;4.92;67.45;100392.28;680646;29;1243;-83
2022/12/08 01:08:36;;;;;;;19.25;16.50;;;;;;;4.91;67.85;100395.69;677873;29;1166;-83
2022/12/08 01:08:56;;;;;;;19.63;16.75;;;;;;;4.97;67.64;100396.78;677469;29;1430;-83
2022/12/08 01:09:17;;;;;;;21.35;16.90;;;;;;;4.99;67.67;100400.31;677958;29;1161;-82
2022/12/08 01:09:38;;;;;;;21.30;17.55;;;;;;;4.95;67.52;100393.25;680631;29;1013;-82
2022/12/08 01:10:18;;;;;;;22.02;17.77;;;;;;;5.02;67.73;100395.28;680758;29;763;-83
2022/12/08 01:10:39;;;;;;;20.38;16.70;;;;;;;4.91;67.83;100384.47;675152;29;1454;-83
2022/12/08 01:11:04;;;;;;;21.27;16.92;;;;;;;4.91;67.67;100377.59;675699;29;785;-83
2022/12/08 01:11:25;;;;;;;21.20;17.50;;;;;;;4.95;67.84;100390.66;672597;29;1307;-84
2022/12/08 01:11:46;;;;;;;21.05;17.33;;;;;;;4.98;67.65;100389.09;675255;29;1915;-82
2022/12/08 01:12:06;;;;;;;20.83;17.83;;;;;;;5.02;67.81;100395.28;677977;29;1113;-83
2022/12/08 01:12:30;;;;;;;21.10;17.50;;;;;;;4.93;67.63;100381.13;675395;29;1159;-82
2022/12/08 01:12:50;;;;;;;20.58;17.50;;;;;;;4.97;67.97;100387.31;675446;29;1296;-82
2022/12/08 01:13:12;;;;;;;20.98;18.10;;;;;;;4.99;67.73;100387.38;677945;29;1189;-82
2022/12/08 01:13:33;;;;;;;20.65;18.25;;;;;;;5.03;67.59;100395.34;675301;29;1579;-82
2022/12/08 01:13:54;;;;;;;21.33;18.00;;;;;;;5.02;67.63;100391.00;675448;29;825;-83
2022/12/08 01:14:15;;;;;;;20.48;17.52;;;;;;;5.07;67.40;100396.38;670293;29;1160;-82
2022/12/08 01:14:36;;;;;;;20.25;17.27;;;;;;;5.04;67.55;100389.34;675361;29;1052;-82
2022/12/08 01:14:56;;;;;;;20.65;17.17;;;;;;;5.05;67.60;100396.28;675551;29;772;-82
2022/12/08 01:15:17;;;;;;;21.40;17.20;;;;;;;5.09;67.69;100402.50;678065;29;1187;-82
2022/12/08 01:15:38;;;;;;;23.60;17.67;;;;;;;5.11;67.59;100400.88;677905;29;1085;-82
2022/12/08 01:15:58;;;;;;;23.73;18.15;;;;;;;5.09;67.49;100397.31;675550;29;1211;-82
2022/12/08 01:16:28;;;;;;;23.73;18.43;;;;;;;5.05;67.27;100391.13;675489;29;1004;-82
2022/12/08 01:17:19;;;;;;;21.70;18.75;;;;;;;5.12;67.54;100410.41;672592;29;1213;-82
2022/12/08 01:17:45;;;;;;;20.40;17.10;;;;;;;4.99;67.81;100383.13;674304;29;906;-82
2022/12/08 01:18:06;;;;;;;20.73;17.42;;;;;;;5.08;67.79;100395.56;676201;29;1349;-82
2022/12/08 01:18:27;;;;;;;20.80;17.83;;;;;;;5.11;67.72;100398.28;680591;29;1278;-82
2022/12/08 01:18:49;;;;;;;20.98;18.35;;;;;;;5.12;67.99;100400.06;680728;29;1036;-82
2022/12/08 01:19:14;;;;;;;23.48;18.83;;;;;;;5.10;67.60;100399.13;678012;29;1343;-82
2022/12/08 01:19:36;;;;;;;24.80;18.80;;;;;;;5.10;67.68;100393.94;680529;29;981;-82
2022/12/08 01:19:56;;;;;;;25.50;19.17;;;;;;;5.08;67.54;100390.38;678165;29;855;-82
2022/12/08 01:20:17;;;;;;;23.42;18.63;;;;;;;5.06;67.46;100377.41;680681;29;1168;-82
2022/12/08 01:21:06;;;;;;;26.90;18.53;;;;;;;5.16;67.49;100407.13;680337;29;1122;-82
2022/12/08 01:21:27;;;;;;;21.30;18.92;;;;;;;5.14;67.62;100398.41;680388;29;1370;-82
2022/12/08 01:21:48;;;;;;;21.35;19.05;;;;;;;5.16;67.61;100401.94;677916;29;1123;-83
2022/12/08 01:22:08;;;;;;;22.27;19.40;;;;;;;5.18;67.49;100405.50;675391;29;967;-83
2022/12/08 01:22:29;;;;;;;24.10;19.63;;;;;;;5.18;67.04;100397.75;680684;29;1101;-83
2022/12/08 01:22:50;;;;;;;25.08;19.67;;;;;;;5.13;67.47;100396.66;675340;29;1285;-83
2022/12/08 01:23:11;;;;;;;25.42;19.80;;;;;;;5.15;67.39;100392.41;678040;29;1155;-83
2022/12/08 01:23:35;;;;;;;25.23;20.00;;;;;;;5.13;67.29;100388.88;680562;29;1036;-82
2022/12/08 01:23:59;;;;;;;23.77;19.77;;;;;;;5.24;67.43;100411.75;678096;29;1247;-82
2022/12/08 01:24:20;;;;;;;23.95;20.05;;;;;;;5.20;67.43;100401.28;680527;29;1242;-83
2022/12/08 01:24:41;;;;;;;26.60;21.48;;;;;;;5.23;67.37;100399.63;680663;29;1079;-83
2022/12/08 01:25:01;;;;;;;26.38;21.98;;;;;;;5.22;67.27;100403.94;678033;29;1258;-83
2022/12/08 01:25:22;;;;;;;25.52;22.67;;;;;;;5.25;67.52;100403.16;680749;29;721;-83
2022/12/08 01:25:43;;;;;;;24.50;21.40;;;;;;;5.30;67.38;100407.75;677866;29;1175;-83
2022/12/08 01:26:05;;;;;;;26.27;21.17;;;;;;;5.22;67.36;100398.78;672754;29;1201;-83
2022/12/08 01:26:26;;;;;;;26.63;20.70;;;;;;;5.28;67.29;100400.72;675458;29;1129;-83
2022/12/08 01:26:48;;;;;;;27.25;21.50;;;;;;;5.27;67.22;100407.59;680322;29;1310;-83
2022/12/08 01:27:09;;;;;;;26.55;21.52;;;;;;;5.24;67.21;100385.88;677966;29;1261;-83
2022/12/08 01:27:30;;;;;;;28.67;22.20;;;;;;;5.28;67.38;100403.31;677817;29;1096;-83
2022/12/08 01:27:52;;;;;;;27.77;21.70;;;;;;;5.24;67.07;100393.63;678005;29;882;-82
2022/12/08 01:28:13;;;;;;;27.20;22.15;;;;;;;5.20;67.52;100396.09;677987;29;1264;-82
2022/12/08 01:28:33;;;;;;;24.52;20.88;;;;;;;5.29;67.37;100405.09;680537;29;1146;-82
2022/12/08 01:28:54;;;;;;;23.67;20.17;;;;;;;5.29;67.30;100395.59;677996;29;1159;-83
2022/12/08 01:29:15;;;;;;;24.50;19.53;;;;;;;5.32;67.18;100408.69;678049;29;1082;-82
2022/12/08 01:29:35;;;;;;;23.50;19.47;;;;;;;5.30;67.37;100412.94;677844;29;1019;-82
2022/12/08 01:29:56;;;;;;;23.52;19.73;;;;;;;5.27;67.23;100401.56;678053;29;819;-83
2022/12/08 01:30:17;;;;;;;23.75;20.60;;;;;;;5.21;67.14;100386.63;675393;29;1401;-82
2022/12/08 01:30:38;;;;;;;25.83;21.50;;;;;;;5.27;67.01;100398.97;675686;29;1034;-82
2022/12/08 01:31:00;;;;;;;27.00;21.98;;;;;;;5.29;67.24;100397.31;675443;29;1130;-83
2022/12/08 01:31:22;;;;;;;26.30;21.48;;;;;;;5.25;67.44;100390.22;675289;29;1319;-83
2022/12/08 01:31:42;;;;;;;25.42;21.45;;;;;;;5.25;67.67;100400.56;677847;29;1982;-83
2022/12/08 01:32:03;;;;;;;26.07;22.03;;;;;;;5.27;67.51;100393.78;677941;29;1094;-83
2022/12/08 01:32:35;;;;;;;25.77;22.17;;;;;;;5.35;67.36;100405.34;678021;29;1213;-83
2022/12/08 01:32:56;;;;;;;27.17;22.60;;;;;;;5.33;67.37;100401.78;675383;29;1241;-83
2022/12/08 01:33:16;;;;;;;26.53;22.77;;;;;;;5.37;67.35;100414.06;672807;29;1030;-82
2022/12/08 01:33:37;;;;;;;25.65;22.75;;;;;;;5.36;67.23;100407.13;672799;29;1197;-82
2022/12/08 01:33:58;;;;;;;28.33;22.63;;;;;;;5.33;67.00;100399.22;675392;29;1148;-82
2022/12/08 01:34:18;;;;;;;27.70;22.70;;;;;;;5.37;67.02;100411.47;675433;29;1154;-83
2022/12/08 01:34:39;;;;;;;27.50;22.80;;;;;;;5.37;67.20;100406.31;675710;29;1007;-83
2022/12/08 01:35:00;;;;;;;25.65;22.95;;;;;;;5.41;67.08;100404.72;677936;29;1239;-83
2022/12/08 01:35:21;;;;;;;25.48;22.77;;;;;;;5.32;67.19;100392.28;677964;29;1160;-83
2022/12/08 01:35:41;;;;;;;26.02;22.52;;;;;;;5.42;67.01;100415.16;680495;29;1120;-83
2022/12/08 01:36:04;;;;;;;26.23;22.70;;;;;;;5.41;67.26;100407.31;680570;29;1294;-83
2022/12/08 01:36:37;;;;;;;27.73;23.08;;;;;;;5.42;67.20;100407.41;672731;29;1263;-82
2022/12/08 01:36:57;;;;;;;28.00;23.17;;;;;;;5.34;67.32;100395.84;675376;29;926;-82
2022/12/08 01:37:18;;;;;;;27.25;22.45;;;;;;;5.31;67.14;100388.81;675345;29;1110;-83
2022/12/08 01:37:39;;;;;;;26.33;22.40;;;;;;;5.38;67.28;100402.88;677832;29;1105;-83
2022/12/08 01:37:59;;;;;;;25.90;22.77;;;;;;;5.39;66.90;100401.19;678108;29;780;-82
2022/12/08 01:38:21;;;;;;;26.35;23.48;;;;;;;5.43;67.02;100411.75;675456;29;1063;-83
2022/12/08 01:38:41;;;;;;;27.20;23.23;;;;;;;5.38;67.23;100402.00;670034;29;1347;-83
2022/12/08 01:39:05;;;;;;;30.27;23.50;;;;;;;5.41;67.29;100405.59;675309;29;1163;-83
2022/12/08 01:39:25;;;;;;;29.17;22.88;;;;;;;5.36;66.97;100389.00;675323;29;1102;-83
2022/12/08 01:39:46;;;;;;;27.77;22.20;;;;;;;5.43;66.87;100405.69;677978;29;1111;-82
2022/12/08 01:40:07;;;;;;;26.20;21.90;;;;;;;5.38;66.67;100389.06;679812;29;1300;-82
2022/12/08 01:40:28;;;;;;;27.35;22.02;;;;;;;5.45;66.85;100401.44;672938;29;1137;-83
2022/12/08 01:40:48;;;;;;;26.70;21.92;;;;;;;5.43;66.95;100393.63;675342;29;1238;-82
2022/12/08 01:41:13;;;;;;;26.92;22.27;;;;;;;5.46;67.03;100398.94;677913;29;1548;-82
2022/12/08 01:41:36;;;;;;;26.67;21.98;;;;;;;5.49;66.82;100398.19;679814;29;1903;-82
2022/12/08 01:41:56;;;;;;;27.13;22.30;;;;;;;5.44;66.46;100387.63;680594;29;1859;-83
2022/12/08 01:42:21;;;;;;;26.77;22.50;;;;;;;5.50;66.88;100404.22;677944;29;1272;-83
2022/12/08 01:42:42;;;;;;;27.88;23.25;;;;;;;5.44;66.60;100398.00;672607;29;1486;-83
2022/12/08 01:43:04;;;;;;;27.55;23.60;;;;;;;5.42;66.54;100391.88;675445;29;1311;-83
2022/12/08 01:43:42;;;;;;;27.23;23.25;;;;;;;5.45;67.21;100394.56;675386;29;1015;-83
2022/12/08 01:44:12;;;;;;;25.67;22.48;;;;;;;5.52;66.89;100406.06;675763;29;1201;-83
2022/12/08 01:44:32;;;;;;;26.65;22.67;;;;;;;5.53;66.93;100401.78;676016;29;1470;-83
2022/12/08 01:45:01;;;;;;;27.45;22.92;;;;;;;5.52;66.55;100403.47;674976;29;1180;-83
2022/12/08 01:45:25;;;;;;;27.70;22.80;;;;;;;5.48;66.98;100406.78;675306;29;1972;-83
2022/12/08 01:45:47;;;;;;;30.40;23.70;;;;;;;5.45;67.14;100397.16;675385;29;1142;-82
2022/12/08 01:46:07;;;;;;;30.38;23.63;;;;;;;5.42;66.87;100399.63;672782;29;1316;-83
2022/12/08 01:46:30;;;;;;;29.10;22.55;;;;;;;5.43;66.74;100404.00;672624;29;995;-82
2022/12/08 01:46:53;;;;;;;28.50;22.00;;;;;;;5.51;66.67;100406.03;672446;29;1096;-83
2022/12/08 01:47:13;;;;;;;27.77;22.52;;;;;;;5.45;66.79;100392.00;675442;29;1098;-83
2022/12/08 01:47:44;;;;;;;26.33;22.27;;;;;;;5.51;66.74;100406.03;677838;29;1054;-83
2022/12/08 01:48:13;;;;;;;25.83;22.45;;;;;;;5.45;66.52;100407.50;677890;29;1029;-83
2022/12/08 01:48:33;;;;;;;26.45;22.73;;;;;;;5.46;66.83;100396.34;680697;29;1220;-83